createdAt,value
2019-05-14T00:02:02.741Z,99.90
2019-05-14T00:04:31.608Z,99.90
2019-05-14T00:07:01.125Z,99.90
2019-05-14T00:09:32.202Z,99.90
2019-05-14T00:12:02.682Z,99.90
2019-05-14T00:14:39.675Z,99.90
2019-05-14T00:17:02.779Z,99.90
2019-05-14T00:19:31.947Z,99.90
2019-05-14T00:22:02.046Z,99.90
2019-05-14T00:24:32.300Z,99.90
2019-05-14T00:27:02.101Z,99.90
2019-05-14T00:29:32.094Z,99.90
2019-05-14T00:32:01.900Z,99.90
2019-05-14T00:34:31.514Z,99.90
2019-05-14T00:37:01.595Z,99.90
2019-05-14T00:39:32.078Z,99.90
2019-05-14T00:42:01.745Z,99.90
2019-05-14T00:44:32.309Z,99.90
2019-05-14T00:47:02.185Z,99.90
2019-05-14T00:49:31.740Z,99.90
2019-05-14T00:52:02.296Z,99.90
2019-05-14T00:54:32.172Z,99.90
2019-05-14T00:57:01.592Z,99.90
2019-05-14T00:59:32.180Z,99.90
2019-05-14T01:02:03.003Z,99.90
2019-05-14T01:04:32.043Z,99.90
2019-05-14T01:07:01.595Z,99.90
2019-05-14T01:09:31.425Z,99.90
2019-05-14T01:12:01.767Z,99.90
2019-05-14T01:14:31.751Z,99.90
2019-05-14T01:17:02.082Z,99.90
2019-05-14T01:19:31.734Z,99.90
2019-05-14T01:22:01.719Z,99.90
2019-05-14T01:24:32.234Z,99.90
2019-05-14T01:27:01.774Z,99.90
2019-05-14T01:29:31.629Z,99.90
2019-05-14T01:32:01.244Z,99.90
2019-05-14T01:34:32.461Z,99.90
2019-05-14T01:37:02.490Z,99.90
2019-05-14T01:39:32.145Z,99.90
2019-05-14T01:42:02.554Z,99.90
2019-05-14T01:44:31.961Z,99.90
2019-05-14T01:47:01.968Z,99.90
2019-05-14T01:49:31.689Z,99.90
2019-05-14T01:52:01.763Z,99.90
2019-05-14T01:54:31.663Z,99.90
2019-05-14T01:57:02.119Z,99.90
2019-05-14T01:59:32.158Z,99.90
2019-05-14T02:02:02.325Z,99.90
2019-05-14T02:04:31.812Z,99.90
2019-05-14T02:07:02.222Z,99.90
2019-05-14T02:09:32.001Z,99.90
2019-05-14T02:12:02.183Z,99.90
2019-05-14T02:14:31.597Z,99.90
2019-05-14T02:17:01.916Z,99.90
2019-05-14T02:19:31.807Z,99.90
2019-05-14T02:22:02.066Z,99.90
2019-05-14T02:24:32.216Z,99.90
2019-05-14T02:27:01.875Z,99.90
2019-05-14T02:29:32.039Z,99.90
2019-05-14T02:32:01.263Z,99.90
2019-05-14T02:34:30.466Z,99.90
2019-05-14T02:37:00.430Z,99.90
2019-05-14T02:39:29.857Z,99.90
2019-05-14T02:41:59.138Z,99.90
2019-05-14T02:44:29.783Z,99.90
2019-05-14T02:46:59.316Z,99.90
2019-05-14T02:49:29.955Z,99.90
2019-05-14T02:51:59.363Z,99.90
2019-05-14T02:54:29.766Z,99.90
2019-05-14T02:56:59.865Z,99.90
2019-05-14T02:59:30.617Z,99.90
2019-05-14T03:01:59.802Z,99.90
2019-05-14T03:04:30.054Z,99.90
2019-05-14T03:06:59.483Z,99.90
2019-05-14T03:09:29.535Z,99.90
2019-05-14T03:11:59.587Z,99.90
2019-05-14T03:14:30.208Z,99.90
2019-05-14T03:16:59.893Z,99.90
2019-05-14T03:19:29.816Z,99.90
2019-05-14T03:22:00.201Z,99.90
2019-05-14T03:24:29.753Z,99.90
2019-05-14T03:26:59.033Z,99.90
2019-05-14T03:29:30.698Z,99.90
2019-05-14T03:32:02.936Z,99.90
2019-05-14T03:34:33.064Z,99.90
2019-05-14T03:37:03.062Z,99.90
2019-05-14T03:39:31.371Z,99.90
2019-05-14T03:42:00.486Z,99.90
2019-05-14T03:44:29.565Z,99.90
2019-05-14T03:47:04.626Z,99.90
2019-05-14T03:49:29.514Z,99.90
2019-05-14T03:52:00.387Z,99.90
2019-05-14T03:54:30.022Z,99.90
2019-05-14T03:57:00.293Z,99.90
2019-05-14T03:59:29.907Z,99.90
2019-05-14T04:01:59.800Z,99.90
2019-05-14T04:04:34.503Z,99.90
2019-05-14T04:07:04.401Z,99.90
2019-05-14T04:09:34.454Z,99.90
2019-05-14T04:12:04.485Z,99.90
2019-05-14T04:14:34.364Z,99.90
2019-05-14T04:17:11.025Z,99.90
2019-05-14T04:19:39.418Z,99.90
2019-05-14T04:22:11.190Z,99.90
2019-05-14T04:24:41.947Z,99.90
2019-05-14T04:27:13.114Z,99.90
2019-05-14T04:29:43.093Z,99.90
2019-05-14T04:32:12.982Z,99.90
2019-05-14T04:34:42.192Z,99.90
2019-05-14T04:37:12.291Z,99.90
2019-05-14T04:39:41.522Z,99.90
2019-05-14T04:42:10.658Z,99.90
2019-05-14T04:44:40.586Z,99.90
2019-05-14T04:47:27.782Z,99.90
2019-05-14T04:49:40.658Z,99.90
2019-05-14T04:52:10.400Z,99.90
2019-05-14T04:54:39.895Z,99.90
2019-05-14T04:57:10.319Z,99.90
2019-05-14T04:59:40.298Z,99.90
2019-05-14T05:02:09.898Z,99.90
2019-05-14T05:04:44.113Z,99.90
2019-05-14T05:07:13.078Z,99.90
2019-05-14T05:09:42.115Z,99.90
2019-05-14T05:12:11.072Z,99.90
2019-05-14T05:14:40.066Z,99.90
2019-05-14T05:17:09.445Z,99.90
2019-05-14T05:19:40.692Z,99.90
2019-05-14T05:22:09.290Z,99.90
2019-05-14T05:24:38.279Z,99.90
2019-05-14T05:27:09.283Z,99.90
2019-05-14T05:29:39.355Z,99.90
2019-05-14T05:32:08.841Z,99.90
2019-05-14T05:34:38.879Z,99.90
2019-05-14T05:37:08.750Z,99.90
2019-05-14T05:39:39.708Z,99.90
2019-05-14T05:42:09.365Z,99.90
2019-05-14T05:44:39.315Z,99.90
2019-05-14T05:47:09.254Z,99.90
2019-05-14T05:49:38.477Z,99.90
2019-05-14T05:52:08.544Z,99.90
2019-05-14T05:54:38.465Z,99.90
2019-05-14T05:57:09.249Z,99.90
2019-05-14T05:59:39.240Z,99.90
2019-05-14T06:02:09.360Z,99.90
2019-05-14T06:04:39.343Z,99.90
2019-05-14T06:07:08.905Z,99.90
2019-05-14T06:09:38.294Z,99.90
2019-05-14T06:12:08.734Z,99.90
2019-05-14T06:14:38.389Z,99.90
2019-05-14T06:17:08.502Z,99.90
2019-05-14T06:19:38.329Z,99.90
2019-05-14T06:22:09.861Z,99.90
2019-05-14T06:24:39.033Z,99.90
2019-05-14T06:27:09.349Z,99.90
2019-05-14T06:29:38.613Z,99.90
2019-05-14T06:32:09.340Z,99.90
2019-05-14T06:34:38.486Z,99.90
2019-05-14T06:37:08.400Z,99.90
2019-05-14T06:39:39.064Z,99.90
2019-05-14T06:42:08.920Z,99.90
2019-05-14T06:44:38.606Z,99.90
2019-05-14T06:47:09.268Z,99.90
2019-05-14T06:49:38.678Z,99.90
2019-05-14T06:52:08.691Z,99.90
2019-05-14T06:54:38.774Z,99.90
2019-05-14T06:57:08.857Z,99.90
2019-05-14T06:59:38.234Z,99.90
2019-05-14T07:02:08.737Z,99.90
2019-05-14T07:04:39.456Z,99.90
2019-05-14T07:07:08.692Z,99.90
2019-05-14T07:09:38.402Z,99.90
2019-05-14T07:12:09.146Z,99.90
2019-05-14T07:14:38.874Z,99.90
2019-05-14T07:17:09.126Z,99.90
2019-05-14T07:19:38.682Z,99.90
2019-05-14T07:22:08.883Z,99.90
2019-05-14T07:24:40.655Z,99.30
2019-05-14T07:27:09.494Z,96.10
2019-05-14T07:29:39.017Z,91.00
2019-05-14T07:32:08.939Z,83.20
2019-05-14T07:34:38.892Z,76.30
2019-05-14T07:37:09.426Z,67.10
2019-05-14T07:39:38.774Z,62.30
2019-05-14T07:42:09.832Z,55.80
2019-05-14T07:44:39.231Z,52.10
2019-05-14T07:47:08.512Z,49.20
2019-05-14T07:49:38.545Z,47.00
2019-05-14T07:52:09.487Z,44.70
2019-05-14T07:54:39.089Z,42.50
2019-05-14T07:57:08.656Z,41.90
2019-05-14T07:59:38.247Z,40.30
2019-05-14T08:02:09.313Z,41.50
2019-05-14T08:04:38.259Z,40.00
2019-05-14T08:07:08.958Z,41.70
2019-05-14T08:09:38.903Z,41.80
2019-05-14T08:12:09.248Z,41.90
2019-05-14T08:14:45.701Z,43.60
2019-05-14T08:17:09.635Z,44.70
2019-05-14T08:19:38.814Z,43.80
2019-05-14T08:22:09.528Z,45.30
2019-05-14T08:24:38.712Z,45.30
2019-05-14T08:27:08.545Z,43.30
2019-05-14T08:29:40.046Z,43.30
2019-05-14T08:32:09.017Z,44.10
2019-05-14T08:34:38.897Z,44.10
2019-05-14T08:37:08.363Z,43.90
2019-05-14T08:39:39.199Z,43.50
2019-05-14T08:42:08.724Z,44.10
2019-05-14T08:44:38.953Z,44.30
2019-05-14T08:47:09.566Z,41.80
2019-05-14T08:49:46.286Z,41.00
2019-05-14T08:52:09.742Z,40.80
2019-05-14T08:54:39.207Z,42.80
2019-05-14T08:57:09.890Z,45.70
2019-05-14T08:59:39.779Z,47.60
2019-05-14T09:02:10.563Z,47.40
2019-05-14T09:04:42.594Z,46.70
2019-05-14T09:07:10.592Z,45.40
2019-05-14T09:09:39.683Z,44.10
2019-05-14T09:12:12.657Z,44.00
2019-05-14T09:14:39.708Z,44.10
2019-05-14T09:17:09.846Z,43.30
2019-05-14T09:19:44.248Z,42.00
2019-05-14T09:22:09.865Z,41.50
2019-05-14T09:24:39.041Z,40.90
2019-05-14T09:27:08.543Z,40.30
2019-05-14T09:29:39.491Z,40.90
2019-05-14T09:32:09.619Z,42.50
2019-05-14T09:34:39.295Z,41.30
2019-05-14T09:37:08.825Z,42.70
2019-05-14T09:39:38.724Z,41.60
2019-05-14T09:42:08.304Z,42.00
2019-05-14T09:44:38.741Z,42.90
2019-05-14T09:47:08.489Z,42.10
2019-05-14T09:49:38.938Z,41.00
2019-05-14T09:52:09.027Z,42.30
2019-05-14T09:54:41.516Z,42.70
2019-05-14T09:57:09.150Z,41.30
2019-05-14T09:59:38.588Z,41.90
2019-05-14T10:02:09.221Z,41.10
2019-05-14T10:04:39.221Z,43.70
2019-05-14T10:07:08.864Z,43.70
2019-05-14T10:09:39.126Z,45.30
2019-05-14T10:12:08.923Z,46.50
2019-05-14T10:14:39.248Z,45.60
2019-05-14T10:17:08.590Z,45.10
2019-05-14T10:19:39.341Z,43.60
2019-05-14T10:22:08.527Z,43.40
2019-05-14T10:24:38.677Z,45.00
2019-05-14T10:27:08.887Z,47.60
2019-05-14T10:29:39.328Z,48.10
2019-05-14T10:32:08.924Z,47.40
2019-05-14T10:34:37.917Z,50.30
2019-05-14T10:37:08.635Z,49.50
2019-05-14T10:39:39.142Z,46.60
2019-05-14T10:42:09.084Z,47.20
2019-05-14T10:44:38.916Z,46.00
2019-05-14T10:47:09.358Z,44.10
2019-05-14T10:49:38.839Z,43.50
2019-05-14T10:52:08.385Z,42.90
2019-05-14T10:54:40.203Z,43.80
2019-05-14T10:57:09.559Z,43.10
2019-05-14T10:59:39.085Z,43.20
2019-05-14T11:02:11.674Z,43.70
2019-05-14T11:04:39.133Z,43.90
2019-05-14T11:07:09.970Z,44.40
2019-05-14T11:09:39.002Z,41.40
2019-05-14T11:12:08.960Z,43.60
2019-05-14T11:14:38.835Z,45.50
2019-05-14T11:17:11.904Z,46.90
2019-05-14T11:19:39.073Z,47.30
2019-05-14T11:22:08.543Z,47.60
2019-05-14T11:24:38.570Z,47.40
2019-05-14T11:27:07.807Z,46.90
2019-05-14T11:29:38.732Z,45.30
2019-05-14T11:32:09.754Z,45.40
2019-05-14T11:34:39.155Z,45.50
2019-05-14T11:37:08.675Z,45.70
2019-05-14T11:39:38.975Z,46.20
2019-05-14T11:42:08.652Z,44.80
2019-05-14T11:44:38.327Z,44.30
2019-05-14T11:47:09.130Z,44.60
2019-05-14T11:49:38.402Z,45.20
2019-05-14T11:52:11.375Z,46.10
2019-05-14T11:54:40.941Z,45.20
2019-05-14T11:57:11.674Z,45.70
2019-05-14T11:59:39.759Z,46.10
2019-05-14T12:02:09.608Z,45.00
2019-05-14T12:04:39.260Z,43.20
2019-05-14T12:07:09.560Z,43.70
2019-05-14T12:09:39.264Z,43.00
2019-05-14T12:12:12.144Z,45.10
2019-05-14T12:14:39.369Z,44.20
2019-05-14T12:17:09.427Z,45.90
2019-05-14T12:19:43.630Z,46.60
2019-05-14T12:22:13.948Z,47.30
2019-05-14T12:24:44.124Z,46.00
2019-05-14T12:27:14.786Z,44.80
2019-05-14T12:29:49.457Z,46.20
2019-05-14T12:32:18.844Z,47.40
2019-05-14T12:34:49.256Z,45.80
2019-05-14T12:37:19.363Z,44.60
2019-05-14T12:39:49.367Z,44.70
2019-05-14T12:42:20.300Z,44.50
2019-05-14T12:44:49.721Z,44.00
2019-05-14T12:47:20.559Z,44.30
2019-05-14T12:49:51.337Z,45.20
2019-05-14T12:52:25.761Z,45.90
2019-05-14T12:54:51.813Z,45.40
2019-05-14T12:57:21.858Z,44.40
2019-05-14T12:59:51.984Z,43.50
2019-05-14T13:02:21.696Z,42.90
2019-05-14T13:04:51.713Z,43.20
2019-05-14T13:07:21.838Z,43.90
2019-05-14T13:09:51.570Z,43.50
2019-05-14T13:12:20.651Z,43.10
2019-05-14T13:14:50.633Z,42.90
2019-05-14T13:17:20.329Z,43.20
2019-05-14T13:19:50.206Z,44.10
2019-05-14T13:22:36.455Z,44.00
2019-05-14T13:24:52.292Z,44.10
2019-05-14T13:27:22.412Z,43.20
2019-05-14T13:29:52.644Z,44.60
2019-05-14T13:32:22.274Z,45.20
2019-05-14T13:34:55.550Z,45.30
2019-05-14T13:37:28.786Z,45.50
2019-05-14T13:39:59.288Z,45.20
2019-05-14T13:42:29.743Z,45.00
2019-05-14T13:44:59.221Z,45.00
2019-05-14T13:47:28.851Z,45.50
2019-05-14T13:49:59.256Z,45.60
2019-05-14T13:52:29.351Z,44.90
2019-05-14T13:54:58.519Z,43.30
2019-05-14T13:57:28.724Z,44.30
2019-05-14T13:59:59.044Z,44.00
2019-05-14T14:02:31.282Z,44.00
2019-05-14T14:04:59.930Z,44.30
2019-05-14T14:07:28.980Z,44.50
2019-05-14T14:09:59.117Z,45.50
2019-05-14T14:12:31.860Z,46.30
2019-05-14T14:14:59.143Z,46.30
2019-05-14T14:17:29.268Z,46.50
2019-05-14T14:19:58.941Z,46.50
2019-05-14T14:22:28.140Z,46.30
2019-05-14T14:24:59.203Z,44.70
2019-05-14T14:27:29.937Z,45.40
2019-05-14T14:29:59.011Z,45.00
2019-05-14T14:32:28.137Z,44.50
2019-05-14T14:34:59.021Z,44.30
2019-05-14T14:37:28.620Z,44.60
2019-05-14T14:39:59.281Z,45.40
2019-05-14T14:42:29.735Z,46.30
2019-05-14T14:44:59.142Z,45.90
2019-05-14T14:47:29.323Z,45.80
2019-05-14T14:50:00.420Z,45.20
2019-05-14T14:52:29.353Z,45.30
2019-05-14T14:54:59.004Z,44.90
2019-05-14T14:57:30.326Z,45.10
2019-05-14T14:59:58.880Z,45.20
2019-05-14T15:02:28.826Z,46.00
2019-05-14T15:04:59.585Z,46.50
2019-05-14T15:07:30.237Z,46.60
2019-05-14T15:09:59.739Z,45.70
2019-05-14T15:12:29.244Z,45.80
2019-05-14T15:15:01.480Z,45.50
2019-05-14T15:17:30.512Z,45.30
2019-05-14T15:19:59.724Z,44.70
2019-05-14T15:22:31.010Z,44.70
2019-05-14T15:24:59.331Z,44.60
2019-05-14T15:27:28.487Z,45.30
2019-05-14T15:29:59.365Z,46.00
2019-05-14T15:32:30.308Z,46.60
2019-05-14T15:34:59.628Z,46.70
2019-05-14T15:37:31.705Z,46.50
2019-05-14T15:39:59.477Z,46.80
2019-05-14T15:42:28.533Z,46.80
2019-05-14T15:44:59.774Z,46.60
2019-05-14T15:47:29.686Z,46.30
2019-05-14T15:49:59.584Z,46.90
2019-05-14T15:52:29.341Z,46.70
2019-05-14T15:54:58.575Z,47.40
2019-05-14T15:57:28.803Z,47.70
2019-05-14T16:00:00.810Z,48.20
2019-05-14T16:02:29.817Z,48.10
2019-05-14T16:04:59.263Z,48.20
2019-05-14T16:07:29.326Z,48.20
2019-05-14T16:10:00.974Z,47.70
2019-05-14T16:12:32.246Z,47.90
2019-05-14T16:15:00.075Z,47.60
2019-05-14T16:17:30.365Z,48.30
2019-05-14T16:20:01.300Z,48.30
2019-05-14T16:22:30.377Z,47.50
2019-05-14T16:25:01.013Z,47.00
2019-05-14T16:27:30.371Z,46.80
2019-05-14T16:29:59.378Z,47.60
2019-05-14T16:32:28.547Z,48.40
2019-05-14T16:34:58.042Z,49.00
2019-05-14T16:37:28.175Z,49.20
2019-05-14T16:39:57.444Z,49.60
2019-05-14T16:42:29.098Z,49.70
2019-05-14T16:44:57.359Z,49.60
2019-05-14T16:47:28.604Z,49.80
2019-05-14T16:49:59.166Z,50.40
2019-05-14T16:52:28.715Z,50.30
2019-05-14T16:55:17.370Z,50.20
2019-05-14T16:57:29.335Z,50.50
2019-05-14T16:59:58.657Z,50.50
2019-05-14T17:02:29.658Z,50.90
2019-05-14T17:04:59.059Z,51.20
2019-05-14T17:07:28.854Z,51.70
2019-05-14T17:09:58.213Z,51.80
2019-05-14T17:12:30.820Z,52.90
2019-05-14T17:14:59.211Z,53.90
2019-05-14T17:17:29.529Z,54.50
2019-05-14T17:20:04.009Z,55.20
2019-05-14T17:22:35.080Z,55.90
2019-05-14T17:25:04.930Z,57.20
2019-05-14T17:27:34.069Z,57.90
2019-05-14T17:30:03.196Z,58.20
2019-05-14T17:32:32.320Z,58.60
2019-05-14T17:35:01.476Z,59.20
2019-05-14T17:37:30.524Z,60.30
2019-05-14T17:39:59.602Z,62.50
2019-05-14T17:42:28.693Z,64.70
2019-05-14T17:44:58.926Z,66.20
2019-05-14T17:47:29.125Z,69.50
2019-05-14T17:49:59.069Z,71.50
2019-05-14T17:52:30.149Z,74.40
2019-05-14T17:54:58.763Z,76.20
2019-05-14T17:57:34.616Z,77.20
2019-05-14T17:59:58.670Z,76.50
2019-05-14T18:02:28.735Z,75.80
2019-05-14T18:04:59.353Z,77.00
2019-05-14T18:07:28.686Z,78.20
2019-05-14T18:09:58.824Z,80.40
2019-05-14T18:12:30.622Z,81.30
2019-05-14T18:14:58.908Z,83.40
2019-05-14T18:17:29.570Z,86.10
2019-05-14T18:19:58.966Z,87.30
2019-05-14T18:22:28.649Z,88.30
2019-05-14T18:24:59.295Z,90.20
2019-05-14T18:27:29.456Z,91.20
2019-05-14T18:29:59.248Z,92.20
2019-05-14T18:32:28.535Z,93.90
2019-05-14T18:34:58.162Z,94.80
2019-05-14T18:37:29.000Z,95.50
2019-05-14T18:39:58.679Z,95.80
2019-05-14T18:42:29.771Z,96.30
2019-05-14T18:44:59.023Z,96.90
2019-05-14T18:47:29.110Z,97.30
2019-05-14T18:49:59.692Z,97.70
2019-05-14T18:52:29.779Z,98.50
2019-05-14T18:54:59.177Z,98.50
2019-05-14T18:57:28.734Z,98.90
2019-05-14T18:59:57.935Z,99.20
2019-05-14T19:02:29.288Z,99.50
2019-05-14T19:04:58.329Z,99.70
2019-05-14T19:07:28.718Z,99.90
2019-05-14T19:09:58.790Z,99.90
2019-05-14T19:12:28.902Z,99.90
2019-05-14T19:14:59.049Z,99.90
2019-05-14T19:17:28.539Z,99.90
2019-05-14T19:19:59.695Z,99.90
2019-05-14T19:22:28.981Z,99.90
2019-05-14T19:24:58.802Z,99.90
2019-05-14T19:27:28.588Z,99.90
2019-05-14T19:29:59.530Z,99.90
2019-05-14T19:32:28.493Z,99.10
2019-05-14T19:34:57.585Z,98.50
2019-05-14T19:37:28.956Z,98.00
2019-05-14T19:39:58.695Z,97.10
2019-05-14T19:42:28.738Z,95.50
2019-05-14T19:44:59.744Z,94.10
2019-05-14T19:47:28.694Z,92.50
2019-05-14T19:49:58.154Z,90.30
2019-05-14T19:52:28.248Z,86.90
2019-05-14T19:54:57.482Z,84.50
2019-05-14T19:57:28.872Z,79.90
2019-05-14T19:59:57.203Z,79.30
2019-05-14T20:02:28.510Z,77.40
2019-05-14T20:04:58.819Z,75.70
2019-05-14T20:07:28.024Z,73.70
2019-05-14T20:09:58.783Z,73.90
2019-05-14T20:12:28.718Z,75.00
2019-05-14T20:14:58.379Z,75.40
2019-05-14T20:17:28.318Z,73.80
2019-05-14T20:19:58.148Z,73.70
2019-05-14T20:22:28.361Z,73.90
2019-05-14T20:24:58.959Z,74.20
2019-05-14T20:27:28.287Z,73.90
2019-05-14T20:29:58.102Z,73.10
2019-05-14T20:32:27.189Z,72.90
2019-05-14T20:34:58.003Z,72.80
2019-05-14T20:37:29.115Z,72.30
2019-05-14T20:39:59.073Z,72.20
2019-05-14T20:42:29.007Z,71.40
2019-05-14T20:44:58.236Z,72.60
2019-05-14T20:47:28.185Z,73.20
2019-05-14T20:49:58.015Z,74.60
2019-05-14T20:52:28.421Z,74.90
2019-05-14T20:54:58.311Z,75.60
2019-05-14T20:57:31.264Z,75.50
2019-05-14T20:59:58.859Z,75.40
2019-05-14T21:02:29.490Z,76.50
2019-05-14T21:05:04.471Z,76.80
2019-05-14T21:07:29.524Z,77.50
2019-05-14T21:10:00.796Z,78.00
2019-05-14T21:12:29.800Z,78.60
2019-05-14T21:14:59.226Z,79.30
2019-05-14T21:17:28.337Z,79.60
2019-05-14T21:19:57.443Z,80.30
2019-05-14T21:22:28.863Z,80.30
2019-05-14T21:24:57.003Z,80.20
2019-05-14T21:27:38.513Z,80.60
2019-05-14T21:29:58.384Z,80.20
2019-05-14T21:32:28.333Z,80.70
2019-05-14T21:34:58.512Z,81.20
2019-05-14T21:37:28.359Z,81.50
2019-05-14T21:39:58.274Z,82.30
2019-05-14T21:42:28.577Z,82.50
2019-05-14T21:44:58.384Z,83.20
2019-05-14T21:47:28.520Z,83.40
2019-05-14T21:49:58.126Z,83.50
2019-05-14T21:52:28.983Z,83.60
2019-05-14T21:54:58.612Z,83.20
2019-05-14T21:57:28.391Z,83.50
2019-05-14T21:59:58.818Z,83.00
2019-05-14T22:02:30.442Z,83.00
2019-05-14T22:05:01.454Z,82.80
2019-05-14T22:07:29.684Z,82.90
2019-05-14T22:09:58.800Z,83.10
2019-05-14T22:12:28.282Z,82.70
2019-05-14T22:14:58.996Z,83.00
2019-05-14T22:17:28.566Z,84.70
2019-05-14T22:19:58.571Z,86.20
2019-05-14T22:22:27.748Z,87.20
2019-05-14T22:24:58.414Z,88.60
2019-05-14T22:27:28.117Z,90.20
2019-05-14T22:29:58.616Z,91.80
2019-05-14T22:32:28.557Z,94.20
2019-05-14T22:34:58.692Z,93.70
2019-05-14T22:37:28.093Z,93.90
2019-05-14T22:39:59.063Z,93.60
2019-05-14T22:42:28.334Z,92.50
2019-05-14T22:44:58.340Z,92.60
2019-05-14T22:47:32.062Z,93.00
2019-05-14T22:50:02.432Z,93.40
2019-05-14T22:52:33.280Z,93.70
2019-05-14T22:55:06.631Z,94.50
2019-05-14T22:57:45.284Z,94.70
2019-05-14T23:00:14.739Z,95.10
2019-05-14T23:02:43.699Z,95.50
2019-05-14T23:05:19.270Z,96.30
2019-05-14T23:07:51.977Z,95.90
2019-05-14T23:10:31.332Z,96.30
2019-05-14T23:13:02.223Z,97.80
2019-05-14T23:15:32.831Z,98.20
2019-05-14T23:18:01.787Z,98.10
2019-05-14T23:20:30.791Z,97.90
2019-05-14T23:22:59.810Z,98.00
2019-05-14T23:25:29.309Z,97.20
2019-05-14T23:27:58.922Z,97.00
2019-05-14T23:30:32.379Z,96.80
2019-05-14T23:33:01.499Z,96.70
2019-05-14T23:35:30.655Z,96.30
2019-05-14T23:38:00.307Z,96.20
2019-05-14T23:40:29.366Z,96.40
2019-05-14T23:42:58.858Z,96.80
2019-05-14T23:45:28.466Z,96.80
2019-05-14T23:47:58.557Z,96.90
2019-05-14T23:50:28.485Z,97.00
2019-05-14T23:53:00.038Z,97.10
2019-05-14T23:55:28.968Z,97.30
2019-05-14T23:57:58.604Z,97.50
